Time;durP1;ratioP1;P1;durP2;ratioP2;P2;SDS_P1;SDS_P2;PMS_P1;PMS_P2;Temp;Humidity;BMP_temperature;BMP_pressure;BME280_temperature;BME280_humidity;BME280_pressure;Samples;Min_cycle;Max_cycle;Signal;HPM_P1;HPM_P2
2023/01/25 00:02:29;;;;;;;33.50;23.00;;;0.90;99.90;;;;;;6245162;23;20085;-87
2023/01/25 00:04:55;;;;;;;35.67;23.95;;;0.90;99.90;;;;;;6194616;23;20016;-87
2023/01/25 00:07:21;;;;;;;36.30;24.20;;;0.60;99.90;;;;;;6246529;23;20209;-87
2023/01/25 00:09:46;;;;;;;33.85;23.92;;;0.80;99.90;;;;;;6219429;23;20035;-84
2023/01/25 00:12:12;;;;;;;33.05;23.80;;;0.40;99.90;;;;;;6249464;23;20008;-86
2023/01/25 00:14:38;;;;;;;34.78;24.60;;;0.60;99.90;;;;;;6197377;23;20012;-87
2023/01/25 00:17:04;;;;;;;37.67;24.73;;;0.70;99.90;;;;;;6193766;23;20012;-86
2023/01/25 00:19:29;;;;;;;38.28;26.15;;;0.60;99.90;;;;;;6246076;23;20012;-89
2023/01/25 00:21:55;;;;;;;38.05;26.00;;;0.50;99.90;;;;;;6195635;23;20008;-85
2023/01/25 00:24:24;;;;;;;37.60;26.20;;;0.80;99.90;;;;;;6201109;23;20027;-89
2023/01/25 00:27:02;;;;;;;38.15;25.63;;;0.40;99.90;;;;;;6198535;23;20008;-86
2023/01/25 00:29:28;;;;;;;36.40;24.20;;;0.40;99.90;;;;;;6194136;23;20027;-89
2023/01/25 00:32:01;;;;;;;38.53;26.45;;;0.50;99.90;;;;;;6216095;23;20440;-86
2023/01/25 00:34:45;;;;;;;35.83;25.63;;;0.50;99.90;;;;;;6190570;23;20018;-87
2023/01/25 00:37:20;;;;;;;38.15;26.60;;;0.50;99.90;;;;;;6190866;23;20475;-84
2023/01/25 00:39:46;;;;;;;41.25;26.35;;;0.60;99.90;;;;;;6214388;23;20019;-87
2023/01/25 00:42:15;;;;;;;41.97;27.27;;;0.60;99.90;;;;;;6189413;23;20015;-89
2023/01/25 00:44:40;;;;;;;42.38;27.10;;;0.70;99.90;;;;;;6190800;23;20048;-84
2023/01/25 00:47:06;;;;;;;40.72;27.05;;;0.40;99.90;;;;;;6189566;23;20344;-87
2023/01/25 00:49:32;;;;;;;40.95;26.95;;;0.60;99.90;;;;;;6190909;23;20064;-83
2023/01/25 00:51:58;;;;;;;37.20;26.15;;;0.80;99.90;;;;;;6190580;23;20015;-85
2023/01/25 00:54:24;;;;;;;39.33;27.00;;;0.50;99.90;;;;;;6189099;23;20039;-88
2023/01/25 00:56:55;;;;;;;36.85;25.58;;;0.50;99.90;;;;;;6188925;23;20016;-89
2023/01/25 00:59:24;;;;;;;41.58;27.30;;;0.50;99.90;;;;;;6189252;23;20096;-85
2023/01/25 01:01:51;;;;;;;40.05;26.55;;;0.50;99.90;;;;;;6191845;23;20317;-88
2023/01/25 01:04:16;;;;;;;39.20;26.40;;;0.50;99.90;;;;;;6191991;23;20525;-85
2023/01/25 01:06:42;;;;;;;36.92;26.30;;;0.90;99.90;;;;;;6220539;23;20091;-85
2023/01/25 01:09:16;;;;;;;40.40;26.80;;;0.50;99.90;;;;;;6214778;23;20043;-85
2023/01/25 01:11:42;;;;;;;38.53;26.25;;;0.70;99.90;;;;;;6240247;23;20078;-84
2023/01/25 01:14:08;;;;;;;37.80;26.17;;;0.60;99.90;;;;;;6189382;23;20016;-86
2023/01/25 01:16:34;;;;;;;37.72;26.48;;;0.70;99.90;;;;;;6215489;23;20030;-84
2023/01/25 01:19:00;;;;;;;42.80;25.85;;;0.70;99.90;;;;;;6214195;23;20321;-86
2023/01/25 01:21:26;;;;;;;36.78;25.35;;;0.50;99.90;;;;;;6196048;23;20081;-87
2023/01/25 01:23:53;;;;;;;38.05;25.10;;;0.50;99.90;;;;;;6211844;23;20089;-83
2023/01/25 01:26:19;;;;;;;37.38;25.55;;;0.50;99.90;;;;;;6212502;23;20816;-82
2023/01/25 01:28:45;;;;;;;42.30;26.30;;;0.30;99.90;;;;;;6188454;23;20417;-84
2023/01/25 01:31:16;;;;;;;38.72;26.63;;;0.30;99.90;;;;;;6189926;23;20100;-85
2023/01/25 01:33:42;;;;;;;41.00;26.38;;;0.40;99.90;;;;;;6217616;23;20396;-88
2023/01/25 01:36:10;;;;;;;39.00;26.85;;;0.20;99.90;;;;;;6217811;23;20016;-83
2023/01/25 01:38:35;;;;;;;40.28;26.38;;;0.30;99.90;;;;;;6191600;23;20054;-86
2023/01/25 01:41:01;;;;;;;41.15;26.77;;;0.40;99.90;;;;;;6217683;23;20020;-84
2023/01/25 01:43:29;;;;;;;39.35;25.95;;;0.70;99.90;;;;;;6217346;23;20008;-88
2023/01/25 01:45:59;;;;;;;38.85;25.30;;;0.50;99.90;;;;;;6194594;23;20027;-83
2023/01/25 01:48:36;;;;;;;38.22;26.35;;;0.20;99.90;;;;;;6247658;23;20016;-85
2023/01/25 01:51:18;;;;;;;38.30;25.35;;;0.10;99.90;;;;;;6215437;23;20020;-85
2023/01/25 01:53:48;;;;;;;40.03;25.42;;;0.30;99.90;;;;;;6217202;23;20014;-83
2023/01/25 01:56:19;;;;;;;40.28;26.30;;;0.30;99.90;;;;;;6217524;23;20051;-86
2023/01/25 01:58:47;;;;;;;40.53;26.20;;;0.20;99.90;;;;;;6189390;23;20065;-87
2023/01/25 02:01:14;;;;;;;41.55;27.30;;;0.50;99.90;;;;;;6213469;23;20012;-88
2023/01/25 02:03:40;;;;;;;42.28;28.23;;;0.50;99.90;;;;;;6212657;23;20285;-85
2023/01/25 02:06:12;;;;;;;45.20;29.30;;;0.20;99.90;;;;;;6189453;23;20098;-87
2023/01/25 02:08:39;;;;;;;42.20;28.83;;;0.20;99.90;;;;;;6194862;23;20012;-84
2023/01/25 02:11:06;;;;;;;45.10;29.55;;;0.40;99.90;;;;;;6220252;23;20363;-85
2023/01/25 02:13:33;;;;;;;44.95;29.98;;;0.20;99.90;;;;;;6220470;23;20031;-84
2023/01/25 02:15:59;;;;;;;47.15;30.25;;;0.10;99.90;;;;;;6193710;23;20400;-87
2023/01/25 02:18:25;;;;;;;49.00;30.85;;;0.40;99.90;;;;;;6218432;23;20023;-87
2023/01/25 02:20:53;;;;;;;46.47;29.92;;;0.20;99.90;;;;;;6216794;23;20027;-87
2023/01/25 02:23:49;;;;;;;50.28;31.48;;;0.20;99.90;;;;;;6216060;23;20012;-86
2023/01/25 02:26:16;;;;;;;48.88;31.52;;;0.60;99.90;;;;;;6215772;23;20016;-86
2023/01/25 02:29:03;;;;;;;48.70;31.52;;;0.20;99.90;;;;;;6190303;23;20012;-89
2023/01/25 02:31:29;;;;;;;49.67;31.08;;;0.30;99.90;;;;;;6214481;23;20498;-87
2023/01/25 02:33:55;;;;;;;46.72;30.17;;;0.10;99.90;;;;;;6212023;23;20016;-85
2023/01/25 02:36:25;;;;;;;46.78;30.40;;;0.50;99.90;;;;;;6187873;23;20034;-85
2023/01/25 02:39:08;;;;;;;52.80;32.22;;;0.60;99.90;;;;;;6214945;23;20011;-83
2023/01/25 02:41:39;;;;;;;52.72;32.95;;;0.30;99.90;;;;;;6190437;23;20083;-87
2023/01/25 02:44:22;;;;;;;53.00;32.60;;;0.40;99.90;;;;;;6192386;23;20023;-89
2023/01/25 02:46:47;;;;;;;56.55;34.30;;;0.40;99.90;;;;;;6186320;23;20016;-85
2023/01/25 02:49:14;;;;;;;52.42;33.70;;;0.30;99.90;;;;;;6186791;23;20110;-84
2023/01/25 02:51:43;;;;;;;53.28;34.25;;;0.40;99.90;;;;;;6210644;23;20027;-87
2023/01/25 02:54:11;;;;;;;55.50;34.60;;;0.60;99.90;;;;;;6214325;23;20013;-84
2023/01/25 02:56:39;;;;;;;55.22;35.13;;;0.30;99.90;;;;;;6212487;23;20662;-84
2023/01/25 02:59:23;;;;;;;56.70;35.72;;;0.20;99.90;;;;;;6208734;23;20050;-88
2023/01/25 03:01:49;;;;;;;58.53;36.22;;;0.20;99.90;;;;;;6210122;23;20019;-88
2023/01/25 03:04:15;;;;;;;61.42;36.90;;;0.60;99.90;;;;;;6212643;23;20067;-86
2023/01/25 03:06:41;;;;;;;63.00;40.85;;;0.50;99.90;;;;;;6187572;23;20866;-86
2023/01/25 03:09:08;;;;;;;69.80;41.50;;;0.40;99.90;;;;;;6210392;23;20015;-85
2023/01/25 03:11:34;;;;;;;67.25;41.22;;;0.10;99.90;;;;;;6210387;23;20019;-89
2023/01/25 03:14:00;;;;;;;68.65;41.67;;;0.20;99.90;;;;;;6209401;23;20009;-86
2023/01/25 03:16:26;;;;;;;75.85;42.88;;;0.50;99.90;;;;;;6208046;23;20013;-86
2023/01/25 03:18:53;;;;;;;75.97;44.38;;;0.20;99.90;;;;;;6207854;23;20320;-85
2023/01/25 03:21:20;;;;;;;78.35;44.58;;;0.30;99.90;;;;;;6208193;23;20501;-86
2023/01/25 03:23:46;;;;;;;79.93;46.42;;;0.20;99.90;;;;;;6207527;23;20070;-84
2023/01/25 03:26:15;;;;;;;73.97;44.60;;;0.40;99.90;;;;;;6209875;23;20447;-85
2023/01/25 03:28:41;;;;;;;82.28;47.33;;;0.10;99.90;;;;;;6207857;23;20410;-87
2023/01/25 03:31:09;;;;;;;79.88;47.03;;;0.40;99.90;;;;;;6217208;23;20123;-83
2023/01/25 03:33:35;;;;;;;80.85;45.03;;;0.50;99.90;;;;;;6209940;23;20016;-86
2023/01/25 03:36:01;;;;;;;76.28;45.63;;;0.30;99.90;;;;;;6208313;23;20024;-88
2023/01/25 03:38:27;;;;;;;77.95;46.78;;;0.40;99.90;;;;;;6211504;23;20393;-86
2023/01/25 03:40:53;;;;;;;81.32;45.08;;;0.10;99.90;;;;;;6209355;23;20012;-84
2023/01/25 03:43:20;;;;;;;77.50;44.83;;;0.20;99.90;;;;;;6214075;23;20072;-85
2023/01/25 03:45:50;;;;;;;77.43;44.53;;;0.30;99.90;;;;;;6213740;23;20100;-89
2023/01/25 03:48:15;;;;;;;81.18;45.08;;;-0.10;99.90;;;;;;6210752;23;20095;-86
2023/01/25 03:50:41;;;;;;;81.50;45.17;;;0.20;99.90;;;;;;6209860;23;20044;-85
2023/01/25 03:53:27;;;;;;;82.57;46.58;;;0.00;99.90;;;;;;6209476;23;20012;-84
2023/01/25 03:55:59;;;;;;;76.40;44.00;;;0.10;99.90;;;;;;6209527;23;20316;-86
2023/01/25 03:58:25;;;;;;;78.18;44.67;;;0.30;99.90;;;;;;6233577;23;20459;-87
2023/01/25 04:00:53;;;;;;;82.50;45.33;;;-0.10;99.90;;;;;;6209927;23;20313;-87
2023/01/25 04:03:20;;;;;;;75.90;43.75;;;0.00;99.90;;;;;;6222294;23;20116;-87
2023/01/25 04:05:46;;;;;;;78.15;44.85;;;0.00;99.90;;;;;;6211436;23;20074;-86
2023/01/25 04:08:12;;;;;;;77.75;43.83;;;0.20;99.90;;;;;;6236272;23;20052;-87
2023/01/25 04:10:38;;;;;;;80.40;45.53;;;0.10;99.90;;;;;;6211184;23;20024;-88
2023/01/25 04:13:03;;;;;;;82.60;47.30;;;0.00;99.90;;;;;;6211436;23;20013;-83
2023/01/25 04:15:29;;;;;;;84.85;47.65;;;-0.10;99.90;;;;;;6212266;23;20016;-85
2023/01/25 04:17:55;;;;;;;84.13;46.85;;;0.30;99.90;;;;;;6213323;23;20021;-87
2023/01/25 04:20:21;;;;;;;78.07;45.65;;;0.30;99.90;;;;;;6216634;23;20016;-85
2023/01/25 04:22:46;;;;;;;84.05;47.38;;;0.20;99.90;;;;;;6194430;23;20019;-89
2023/01/25 04:25:12;;;;;;;82.47;47.30;;;0.10;99.90;;;;;;6211554;23;20120;-86
2023/01/25 04:27:38;;;;;;;81.22;45.90;;;0.00;99.90;;;;;;6211012;23;20019;-88
2023/01/25 04:30:04;;;;;;;81.95;46.05;;;0.00;99.90;;;;;;6184476;23;20043;-90
2023/01/25 04:32:29;;;;;;;83.03;47.78;;;0.10;99.90;;;;;;6209872;23;20067;-88
2023/01/25 04:34:56;;;;;;;83.05;47.13;;;-0.10;99.90;;;;;;6211195;23;20031;-87
2023/01/25 04:37:22;;;;;;;83.93;45.13;;;0.00;99.90;;;;;;6217970;23;20020;-84
2023/01/25 04:39:47;;;;;;;79.25;44.95;;;0.20;99.90;;;;;;6210247;23;20020;-89
2023/01/25 04:42:13;;;;;;;81.95;46.88;;;-0.10;99.90;;;;;;6213808;23;20021;-84
2023/01/25 04:44:38;;;;;;;80.95;46.13;;;-0.10;99.90;;;;;;6215622;23;20020;-84
2023/01/25 04:47:04;;;;;;;81.15;47.45;;;0.10;99.90;;;;;;6211543;23;20036;-85
2023/01/25 04:49:30;;;;;;;82.20;46.25;;;-0.10;99.90;;;;;;6186015;23;20028;-85
2023/01/25 04:51:55;;;;;;;78.18;45.97;;;0.00;99.90;;;;;;6210371;23;20270;-88
2023/01/25 04:54:21;;;;;;;80.38;45.80;;;-0.10;99.90;;;;;;6211340;23;20023;-90
2023/01/25 04:56:47;;;;;;;79.53;45.70;;;0.20;99.90;;;;;;6211612;23;20013;-85
2023/01/25 04:59:31;;;;;;;81.65;46.40;;;0.10;99.90;;;;;;6215559;23;20008;-85
2023/01/25 05:01:57;;;;;;;79.47;46.40;;;0.30;99.90;;;;;;6214515;23;20055;-86
2023/01/25 05:04:23;;;;;;;82.32;47.33;;;0.30;99.90;;;;;;6212758;23;20324;-87
2023/01/25 05:06:48;;;;;;;85.40;48.47;;;-0.10;99.90;;;;;;6219113;23;20012;-83
2023/01/25 05:09:16;;;;;;;81.35;47.83;;;0.30;99.90;;;;;;6224239;23;20023;-83
2023/01/25 05:11:41;;;;;;;83.32;48.08;;;0.30;99.90;;;;;;6197873;23;20017;-83
2023/01/25 05:14:07;;;;;;;84.63;48.05;;;0.30;99.90;;;;;;6226278;23;20058;-82
2023/01/25 05:16:33;;;;;;;81.90;47.40;;;0.10;99.90;;;;;;6214933;23;20369;-85
2023/01/25 05:18:59;;;;;;;83.15;48.40;;;0.10;99.90;;;;;;6209747;23;20070;-87
2023/01/25 05:24:09;;;;;;;80.50;46.25;;;0.00;99.90;;;;;;6212430;23;20086;-88
2023/01/25 05:29:19;;;;;;;80.18;45.92;;;0.20;99.90;;;;;;6211010;23;20466;-86
2023/01/25 05:31:44;;;;;;;80.95;45.70;;;-0.10;99.90;;;;;;6210922;23;20088;-88
2023/01/25 05:34:10;;;;;;;85.07;48.38;;;-0.20;99.90;;;;;;6211712;23;20012;-88
2023/01/25 05:36:36;;;;;;;79.05;46.42;;;0.00;99.90;;;;;;6222615;23;20115;-83
2023/01/25 05:39:05;;;;;;;84.85;47.60;;;0.10;99.90;;;;;;6222479;23;20021;-84
2023/01/25 05:41:30;;;;;;;80.50;46.95;;;0.10;99.90;;;;;;6225979;23;20016;-84
2023/01/25 05:47:21;;;;;;;79.60;46.05;;;-0.20;99.90;;;;;;6210383;23;20021;-85
2023/01/25 05:49:47;;;;;;;77.55;43.95;;;0.20;99.90;;;;;;6211437;23;20459;-86
2023/01/25 05:52:14;;;;;;;79.70;44.95;;;-0.30;99.90;;;;;;6209993;23;20027;-83
2023/01/25 05:54:40;;;;;;;82.35;45.05;;;-0.10;99.90;;;;;;6209061;23;20020;-87
2023/01/25 05:57:05;;;;;;;83.32;47.38;;;-0.20;99.90;;;;;;6209504;23;20009;-87
2023/01/25 05:59:31;;;;;;;81.70;46.17;;;0.10;99.90;;;;;;6209434;23;20059;-87
2023/01/25 06:01:57;;;;;;;77.30;44.72;;;0.00;99.90;;;;;;6187018;23;20008;-85
2023/01/25 06:04:22;;;;;;;85.22;48.42;;;-0.30;99.90;;;;;;6211187;23;20008;-85
2023/01/25 06:06:48;;;;;;;81.97;47.97;;;0.10;99.90;;;;;;6212446;23;20032;-87
2023/01/25 06:09:14;;;;;;;89.20;50.55;;;0.10;99.90;;;;;;6211579;23;20094;-87
2023/01/25 06:11:43;;;;;;;85.45;47.72;;;-0.20;99.90;;;;;;6212953;23;20087;-88
2023/01/25 06:14:09;;;;;;;81.85;43.75;;;0.00;99.90;;;;;;6212810;23;20008;-89
2023/01/25 06:16:35;;;;;;;87.00;50.10;;;0.00;99.90;;;;;;6210948;23;20503;-86
2023/01/25 06:19:01;;;;;;;78.82;45.55;;;-0.20;99.90;;;;;;6185388;23;20012;-85
2023/01/25 06:21:26;;;;;;;83.63;48.75;;;-0.10;99.90;;;;;;6210492;23;20448;-89
2023/01/25 06:23:52;;;;;;;78.32;44.70;;;-0.20;99.90;;;;;;6210446;23;20044;-85
2023/01/25 06:26:18;;;;;;;82.18;45.58;;;-0.40;99.90;;;;;;6210361;23;20023;-86
2023/01/25 06:29:05;;;;;;;75.57;44.15;;;-0.40;99.90;;;;;;6210791;23;20008;-87
2023/01/25 06:31:31;;;;;;;69.82;38.97;;;-0.40;99.90;;;;;;6209702;23;20432;-88
2023/01/25 06:33:59;;;;;;;75.45;42.53;;;-0.20;99.90;;;;;;6211291;23;20074;-87
2023/01/25 06:36:25;;;;;;;77.68;44.83;;;-0.10;99.90;;;;;;6211649;23;20016;-85
2023/01/25 06:38:51;;;;;;;84.82;46.65;;;-0.40;99.90;;;;;;6212166;23;20091;-83
2023/01/25 06:41:18;;;;;;;80.80;46.53;;;-0.10;99.90;;;;;;6215190;23;20008;-89
2023/01/25 06:43:45;;;;;;;85.40;46.25;;;-0.40;99.90;;;;;;6211302;23;20013;-84
2023/01/25 06:46:11;;;;;;;80.25;45.50;;;0.00;99.90;;;;;;6210089;23;20380;-86
2023/01/25 06:48:37;;;;;;;77.70;44.25;;;-0.30;99.90;;;;;;6209806;23;20012;-85
2023/01/25 06:51:05;;;;;;;79.75;45.47;;;-0.50;99.90;;;;;;6208917;23;20393;-87
2023/01/25 06:53:33;;;;;;;85.90;46.92;;;-0.10;99.90;;;;;;6211453;23;20066;-87
2023/01/25 06:56:05;;;;;;;84.30;47.25;;;-0.50;99.90;;;;;;6211752;23;20024;-86
2023/01/25 06:58:32;;;;;;;85.63;46.20;;;-0.10;99.90;;;;;;6212565;23;20045;-87
2023/01/25 07:01:04;;;;;;;82.63;46.45;;;-0.10;99.90;;;;;;6209713;23;20535;-84
2023/01/25 07:03:30;;;;;;;80.20;46.10;;;-0.50;99.90;;;;;;6209158;23;20009;-84
2023/01/25 07:06:00;;;;;;;82.55;47.20;;;0.00;99.90;;;;;;6234055;23;20096;-86
2023/01/25 07:08:27;;;;;;;85.30;47.78;;;-0.10;99.90;;;;;;6211558;23;20336;-88
2023/01/25 07:10:58;;;;;;;81.47;47.13;;;-0.50;99.90;;;;;;6209470;23;20019;-84
2023/01/25 07:13:24;;;;;;;81.05;46.22;;;0.10;99.90;;;;;;6211304;23;20074;-86
2023/01/25 07:15:53;;;;;;;78.20;45.45;;;-0.30;99.90;;;;;;6211905;23;20059;-86
2023/01/25 07:18:19;;;;;;;74.22;43.95;;;-0.30;99.90;;;;;;6212216;23;20079;-86
2023/01/25 07:20:44;;;;;;;78.78;46.13;;;-0.10;99.90;;;;;;6209989;23;20012;-87
2023/01/25 07:23:10;;;;;;;75.55;44.58;;;-0.30;99.90;;;;;;6209632;23;20078;-89
2023/01/25 07:25:36;;;;;;;70.35;42.95;;;-0.20;99.90;;;;;;6209260;23;20024;-86
2023/01/25 07:28:01;;;;;;;72.72;41.22;;;-0.20;99.90;;;;;;6208214;23;20028;-84
2023/01/25 07:30:27;;;;;;;72.78;43.28;;;-0.50;99.90;;;;;;6210183;23;20044;-84
2023/01/25 07:32:54;;;;;;;59.50;33.63;;;-0.20;99.90;;;;;;6185541;23;20026;-85
2023/01/25 07:35:20;;;;;;;66.05;39.88;;;-0.40;99.90;;;;;;6210957;23;20021;-85
2023/01/25 07:37:45;;;;;;;65.93;39.17;;;-0.30;99.90;;;;;;6210341;23;20768;-83
2023/01/25 07:40:12;;;;;;;66.95;40.13;;;-0.40;99.90;;;;;;6224482;23;20052;-84
2023/01/25 07:42:38;;;;;;;64.93;39.05;;;-0.60;99.90;;;;;;6209194;23;20016;-82
2023/01/25 07:45:04;;;;;;;67.32;40.05;;;-0.50;99.90;;;;;;6210954;23;20066;-84
2023/01/25 07:47:30;;;;;;;64.03;37.60;;;-0.80;99.90;;;;;;6208611;23;20012;-83
2023/01/25 07:49:55;;;;;;;64.15;37.35;;;-0.60;99.90;;;;;;6213187;23;20468;-85
2023/01/25 07:52:21;;;;;;;61.15;36.70;;;-0.40;99.90;;;;;;6212291;23;20108;-84
2023/01/25 07:54:48;;;;;;;60.72;37.25;;;-0.70;99.90;;;;;;6240271;23;20013;-86
2023/01/25 07:57:14;;;;;;;63.13;38.25;;;-0.70;99.90;;;;;;6207329;23;20023;-84
2023/01/25 07:59:40;;;;;;;63.78;39.85;;;-0.80;99.90;;;;;;6211172;23;20012;-81
2023/01/25 08:02:09;;;;;;;65.63;39.53;;;-0.80;99.90;;;;;;6210791;23;20247;-82
2023/01/25 08:04:34;;;;;;;58.10;37.20;;;-0.50;99.90;;;;;;6211742;23;20064;-84
2023/01/25 08:07:00;;;;;;;63.55;39.03;;;-0.70;99.90;;;;;;6211940;23;20008;-84
2023/01/25 08:09:27;;;;;;;62.00;38.70;;;-0.70;99.90;;;;;;6211305;23;20086;-83
2023/01/25 08:11:52;;;;;;;58.85;37.45;;;-0.60;99.90;;;;;;6212431;23;20016;-84
2023/01/25 08:14:18;;;;;;;63.08;37.70;;;-0.60;99.90;;;;;;6213235;23;20032;-85
2023/01/25 08:16:44;;;;;;;60.85;38.15;;;-0.60;99.90;;;;;;6211781;23;20431;-83
2023/01/25 08:19:10;;;;;;;59.55;36.28;;;-0.70;99.90;;;;;;6211735;23;20098;-82
2023/01/25 08:21:36;;;;;;;63.65;39.92;;;-0.40;99.90;;;;;;6185503;23;20044;-83
2023/01/25 08:24:06;;;;;;;66.68;39.78;;;-0.50;99.90;;;;;;6211057;23;20349;-83
2023/01/25 08:26:33;;;;;;;60.97;39.08;;;-0.70;99.90;;;;;;6210894;23;20055;-83
2023/01/25 08:29:17;;;;;;;64.35;39.47;;;-0.70;99.90;;;;;;6212791;23;20063;-83
2023/01/25 08:31:44;;;;;;;66.65;39.30;;;-0.40;99.90;;;;;;6207740;23;20015;-83
2023/01/25 08:34:10;;;;;;;67.18;38.53;;;-0.40;99.90;;;;;;6209051;23;20012;-85
2023/01/25 08:36:35;;;;;;;65.88;39.80;;;-0.30;99.90;;;;;;6210043;23;20348;-84
2023/01/25 08:39:04;;;;;;;63.20;39.70;;;-0.50;99.90;;;;;;6212017;23;20020;-83
2023/01/25 08:41:31;;;;;;;66.55;41.00;;;-0.20;99.90;;;;;;6209028;23;20019;-83
2023/01/25 08:43:57;;;;;;;66.05;40.95;;;-0.60;99.90;;;;;;6209672;23;20028;-83
2023/01/25 08:46:25;;;;;;;64.35;39.85;;;-0.30;99.90;;;;;;6209583;23;20318;-83
2023/01/25 08:48:55;;;;;;;66.30;40.92;;;-0.30;99.90;;;;;;6215721;23;20086;-82
2023/01/25 08:51:21;;;;;;;66.80;40.03;;;-0.30;99.90;;;;;;6192047;23;20618;-84
2023/01/25 08:53:47;;;;;;;66.65;40.10;;;-0.50;99.90;;;;;;6191779;23;20023;-85
2023/01/25 08:56:15;;;;;;;66.30;41.00;;;-0.20;99.90;;;;;;6215267;23;20012;-84
2023/01/25 08:58:45;;;;;;;67.45;39.70;;;-0.50;99.90;;;;;;6213873;23;20428;-84
2023/01/25 09:01:13;;;;;;;71.32;42.55;;;-0.20;99.90;;;;;;6188445;23;20427;-83
2023/01/25 09:03:45;;;;;;;67.18;41.63;;;-0.30;99.90;;;;;;6214637;23;20012;-82
2023/01/25 09:06:11;;;;;;;67.30;39.97;;;-0.60;99.90;;;;;;6215983;23;20639;-84
2023/01/25 09:08:37;;;;;;;73.07;44.38;;;-0.50;99.90;;;;;;6214984;23;20015;-84
2023/01/25 09:11:15;;;;;;;72.25;40.83;;;-0.30;99.90;;;;;;6212813;23;20616;-83
2023/01/25 09:16:28;;;;;;;74.65;42.13;;;-0.20;99.90;;;;;;6241420;23;20081;-83
2023/01/25 09:19:00;;;;;;;73.47;42.97;;;-0.20;99.90;;;;;;6187695;23;20012;-87
2023/01/25 09:21:26;;;;;;;74.88;42.58;;;-0.30;99.90;;;;;;6187864;23;20070;-83
2023/01/25 09:23:52;;;;;;;70.05;37.80;;;-0.40;99.90;;;;;;6212134;23;20344;-82
2023/01/25 09:26:18;;;;;;;66.57;39.03;;;-0.50;99.90;;;;;;6185562;23;20043;-82
2023/01/25 09:28:53;;;;;;;74.25;42.42;;;-0.60;99.90;;;;;;6187780;23;20018;-82
2023/01/25 09:31:20;;;;;;;74.38;40.10;;;-0.60;99.90;;;;;;6188042;23;20448;-82
2023/01/25 09:33:46;;;;;;;73.68;40.25;;;-0.40;99.90;;;;;;6211801;23;20016;-81
2023/01/25 09:36:12;;;;;;;72.43;39.55;;;-0.70;99.90;;;;;;6212747;23;20016;-83
2023/01/25 09:38:37;;;;;;;76.18;40.40;;;-0.30;99.90;;;;;;6211218;23;20143;-83
2023/01/25 09:41:03;;;;;;;74.22;40.75;;;-0.60;99.90;;;;;;6212485;23;20023;-81
2023/01/25 09:44:14;;;;;;;82.35;42.78;;;-0.20;99.90;;;;;;6211316;23;20099;-83
2023/01/25 09:46:43;;;;;;;79.40;41.47;;;-0.70;99.90;;;;;;6210630;23;20020;-82
2023/01/25 09:49:38;;;;;;;81.28;40.35;;;-0.50;99.90;;;;;;6186841;23;20020;-81
2023/01/25 09:52:26;;;;;;;75.07;39.17;;;-0.50;99.90;;;;;;6210835;23;20026;-82
2023/01/25 09:54:52;;;;;;;80.20;39.92;;;-0.40;99.90;;;;;;6211090;23;20035;-81
2023/01/25 09:57:17;;;;;;;74.93;40.60;;;-0.40;99.90;;;;;;6212499;23;20016;-84
2023/01/25 10:00:25;;;;;;;77.03;39.15;;;-0.10;99.90;;;;;;6212254;23;20348;-82
2023/01/25 10:03:09;;;;;;;76.45;40.60;;;-0.10;99.90;;;;;;6123328;23;20240;-83
2023/01/25 10:05:43;;;;;;;80.50;40.50;;;0.00;99.90;;;;;;6098266;23;20017;-82
2023/01/25 10:08:14;;;;;;;77.70;40.55;;;-0.10;99.90;;;;;;6148775;23;20013;-83
2023/01/25 10:10:42;;;;;;;78.65;42.00;;;-0.10;99.90;;;;;;6098699;23;20089;-82
2023/01/25 10:13:14;;;;;;;80.50;43.70;;;-0.20;99.90;;;;;;6124714;23;20058;-82
2023/01/25 10:15:43;;;;;;;75.80;38.97;;;-0.10;99.90;;;;;;6124982;23;20024;-81
2023/01/25 10:18:23;;;;;;;71.90;39.13;;;-0.40;99.90;;;;;;6148773;23;20017;-84
2023/01/25 10:20:56;;;;;;;74.50;38.80;;;-0.30;99.90;;;;;;6100890;23;20457;-83
2023/01/25 10:23:45;;;;;;;77.28;40.03;;;-0.30;99.90;;;;;;6149666;23;20112;-84
2023/01/25 10:26:22;;;;;;;78.78;39.65;;;0.00;99.90;;;;;;6149888;23;20044;-88
2023/01/25 10:29:02;;;;;;;77.13;39.20;;;-0.20;99.90;;;;;;6124169;23;20117;-84
2023/01/25 10:31:35;;;;;;;88.40;44.67;;;0.10;99.90;;;;;;6124313;23;20032;-83
2023/01/25 10:34:11;;;;;;;76.85;38.40;;;-0.10;99.90;;;;;;6160587;23;20095;-85
2023/01/25 10:36:36;;;;;;;76.35;40.47;;;0.20;99.90;;;;;;6213979;23;20054;-83
2023/01/25 10:39:06;;;;;;;74.50;38.22;;;0.30;99.90;;;;;;6216450;23;20016;-82
2023/01/25 10:41:40;;;;;;;80.95;40.75;;;0.30;99.90;;;;;;6218994;23;20048;-82
2023/01/25 10:44:23;;;;;;;77.68;40.17;;;0.40;99.90;;;;;;6248969;23;20016;-82
2023/01/25 10:47:00;;;;;;;82.70;42.25;;;0.10;99.90;;;;;;6195576;23;20020;-81
2023/01/25 10:50:02;;;;;;;79.03;40.17;;;0.10;99.90;;;;;;6218044;23;20047;-82
2023/01/25 10:52:34;;;;;;;82.38;40.13;;;0.30;99.90;;;;;;6193308;23;20089;-83
2023/01/25 10:55:24;;;;;;;78.35;41.42;;;0.60;99.90;;;;;;6215494;23;20048;-82
2023/01/25 10:57:53;;;;;;;74.90;39.08;;;0.30;99.90;;;;;;6191519;23;20027;-83
2023/01/25 11:00:38;;;;;;;73.13;37.40;;;0.60;99.90;;;;;;6213894;23;20422;-81
2023/01/25 11:03:04;;;;;;;76.07;40.05;;;0.70;99.90;;;;;;6215174;23;20031;-82
2023/01/25 11:05:38;;;;;;;78.35;41.25;;;0.70;99.90;;;;;;6243025;23;20017;-82
2023/01/25 11:08:21;;;;;;;77.05;40.60;;;0.30;99.90;;;;;;6215022;23;20012;-82
2023/01/25 11:10:47;;;;;;;76.28;39.88;;;0.70;99.90;;;;;;6189169;23;20095;-83
2023/01/25 11:13:16;;;;;;;83.10;39.92;;;0.40;99.90;;;;;;6213863;23;20097;-83
2023/01/25 11:15:43;;;;;;;77.97;39.83;;;0.50;99.90;;;;;;6213282;23;20281;-84
2023/01/25 11:18:17;;;;;;;72.95;38.55;;;0.70;99.90;;;;;;6212597;23;20108;-82
2023/01/25 11:20:43;;;;;;;77.40;37.65;;;0.60;99.90;;;;;;6212267;23;20099;-82
2023/01/25 11:23:24;;;;;;;79.10;39.10;;;0.50;99.90;;;;;;6186889;23;20091;-83
2023/01/25 11:25:50;;;;;;;76.53;37.30;;;0.50;99.90;;;;;;6213586;23;20016;-82
2023/01/25 11:28:22;;;;;;;83.85;39.70;;;0.50;99.90;;;;;;6191460;23;20424;-82
2023/01/25 11:34:29;;;;;;;85.40;40.40;;;0.50;99.90;;;;;;6241691;23;20061;-82
2023/01/25 11:37:04;;;;;;;85.07;40.88;;;0.90;99.90;;;;;;6189917;23;20018;-82
2023/01/25 11:39:44;;;;;;;81.13;39.15;;;0.60;99.90;;;;;;6215392;23;20008;-83
2023/01/25 11:42:21;;;;;;;85.57;39.63;;;0.90;99.90;;;;;;6214351;23;20008;-82
2023/01/25 11:48:45;;;;;;;72.82;36.25;;;0.70;99.90;;;;;;6243031;23;20026;-82
2023/01/25 11:51:29;;;;;;;82.97;37.72;;;0.70;99.90;;;;;;6190412;23;20119;-85
2023/01/25 11:54:16;;;;;;;79.93;38.42;;;0.80;99.90;;;;;;6215759;23;20126;-82
2023/01/25 11:57:09;;;;;;;78.57;37.05;;;1.00;99.90;;;;;;6214950;23;20020;-83
2023/01/25 12:03:53;;;;;;;81.65;35.80;;;0.70;99.90;;;;;;6244118;23;20328;-83
2023/01/25 12:06:51;;;;;;;78.43;34.53;;;0.90;99.90;;;;;;6217251;23;20070;-83
2023/01/25 12:09:32;;;;;;;81.40;36.85;;;0.90;99.90;;;;;;6192156;23;20008;-83
2023/01/25 12:12:02;;;;;;;82.45;37.75;;;1.10;99.90;;;;;;6216925;23;20018;-83
2023/01/25 12:21:33;;;;;;;82.05;36.10;;;0.80;99.90;;;;;;6244037;23;20058;-84
2023/01/25 12:24:14;;;;;;;85.57;37.75;;;1.20;99.90;;;;;;6215142;23;20012;-83
2023/01/25 12:26:47;;;;;;;80.38;36.47;;;1.00;99.90;;;;;;6215945;23;20122;-84
2023/01/25 12:29:19;;;;;;;86.75;36.05;;;1.20;99.90;;;;;;6216099;23;20020;-84
2023/01/25 12:31:55;;;;;;;83.00;36.72;;;0.90;99.90;;;;;;6215015;23;20065;-84
2023/01/25 12:34:29;;;;;;;87.55;37.58;;;0.90;99.90;;;;;;6215477;23;20020;-83
2023/01/25 12:36:59;;;;;;;79.60;35.60;;;1.30;99.90;;;;;;6214118;23;20012;-83
2023/01/25 12:39:32;;;;;;;80.13;36.20;;;1.10;99.90;;;;;;6213976;23;20012;-81
2023/01/25 12:42:11;;;;;;;80.30;36.40;;;1.30;99.90;;;;;;6188328;23;20022;-82
2023/01/25 12:44:48;;;;;;;77.95;35.95;;;1.20;99.90;;;;;;6215285;23;20439;-83
2023/01/25 12:47:32;;;;;;;78.78;36.03;;;1.10;99.90;;;;;;6213359;23;20023;-82
2023/01/25 12:50:19;;;;;;;78.75;35.03;;;1.00;99.90;;;;;;6192283;23;20090;-82
2023/01/25 12:53:00;;;;;;;79.35;35.00;;;1.10;99.90;;;;;;6215171;23;20049;-82
2023/01/25 12:55:27;;;;;;;81.10;34.63;;;1.20;99.90;;;;;;6243452;23;20008;-83
2023/01/25 12:58:15;;;;;;;85.22;35.15;;;1.20;99.90;;;;;;6190294;23;20071;-82
2023/01/25 13:01:18;;;;;;;85.75;34.72;;;0.80;99.90;;;;;;6212505;23;20109;-82
2023/01/25 13:03:53;;;;;;;86.90;34.80;;;1.20;99.90;;;;;;6212245;23;20062;-82
2023/01/25 13:06:31;;;;;;;84.80;35.53;;;0.90;99.90;;;;;;6212097;23;20023;-83
2023/01/25 13:09:00;;;;;;;86.18;35.33;;;1.10;99.90;;;;;;6212004;23;20380;-82
2023/01/25 13:11:40;;;;;;;81.05;29.70;;;0.80;99.90;;;;;;6187939;23;20008;-82
2023/01/25 13:14:15;;;;;;;85.18;35.15;;;0.80;99.90;;;;;;6212646;23;20090;-82
2023/01/25 13:16:50;;;;;;;84.13;35.60;;;0.80;99.90;;;;;;6213030;23;20417;-82
2023/01/25 13:19:28;;;;;;;89.13;35.50;;;0.80;99.90;;;;;;6212217;23;20050;-82